sensor_id;sensor_type;location;lat;lon;timestamp;P1;durP1;ratioP1;P2;durP2;ratioP2
5022;SDS011;2530;47.990;7.866;2023-02-01T00:02:15;4.80;;;4.20;;
5022;SDS011;2530;47.990;7.866;2023-02-01T00:04:40;4.80;;;4.30;;
5022;SDS011;2530;47.990;7.866;2023-02-01T00:07:06;4.80;;;4.30;;
5022;SDS011;2530;47.990;7.866;2023-02-01T00:09:31;5.07;;;4.17;;
5022;SDS011;2530;47.990;7.866;2023-02-01T00:11:57;5.10;;;4.20;;
5022;SDS011;2530;47.990;7.866;2023-02-01T00:14:26;4.30;;;3.78;;
5022;SDS011;2530;47.990;7.866;2023-02-01T00:16:52;5.43;;;4.33;;
5022;SDS011;2530;47.990;7.866;2023-02-01T00:19:18;4.90;;;4.40;;
5022;SDS011;2530;47.990;7.866;2023-02-01T00:21:43;4.33;;;3.90;;
5022;SDS011;2530;47.990;7.866;2023-02-01T00:24:10;4.72;;;3.95;;
5022;SDS011;2530;47.990;7.866;2023-02-01T00:26:43;4.45;;;3.85;;
5022;SDS011;2530;47.990;7.866;2023-02-01T00:29:19;4.70;;;3.88;;
5022;SDS011;2530;47.990;7.866;2023-02-01T00:31:45;4.17;;;3.77;;
5022;SDS011;2530;47.990;7.866;2023-02-01T00:34:12;4.72;;;3.58;;
5022;SDS011;2530;47.990;7.866;2023-02-01T00:36:41;4.65;;;3.85;;
5022;SDS011;2530;47.990;7.866;2023-02-01T00:39:07;4.70;;;3.78;;
5022;SDS011;2530;47.990;7.866;2023-02-01T00:41:33;3.60;;;3.30;;
5022;SDS011;2530;47.990;7.866;2023-02-01T00:43:58;4.03;;;3.63;;
5022;SDS011;2530;47.990;7.866;2023-02-01T00:46:24;5.20;;;4.00;;
5022;SDS011;2530;47.990;7.866;2023-02-01T00:48:50;3.40;;;3.10;;
5022;SDS011;2530;47.990;7.866;2023-02-01T00:51:17;3.30;;;3.00;;
5022;SDS011;2530;47.990;7.866;2023-02-01T00:53:45;4.25;;;3.53;;
5022;SDS011;2530;47.990;7.866;2023-02-01T00:56:10;4.13;;;3.38;;
5022;SDS011;2530;47.990;7.866;2023-02-01T00:58:36;4.20;;;3.22;;
5022;SDS011;2530;47.990;7.866;2023-02-01T01:01:06;3.75;;;3.33;;
5022;SDS011;2530;47.990;7.866;2023-02-01T01:03:35;3.67;;;3.20;;
5022;SDS011;2530;47.990;7.866;2023-02-01T01:06:04;3.50;;;3.10;;
5022;SDS011;2530;47.990;7.866;2023-02-01T01:08:31;4.13;;;3.30;;
5022;SDS011;2530;47.990;7.866;2023-02-01T01:10:57;3.10;;;2.80;;
5022;SDS011;2530;47.990;7.866;2023-02-01T01:13:23;4.00;;;2.87;;
5022;SDS011;2530;47.990;7.866;2023-02-01T01:15:48;3.30;;;3.00;;
5022;SDS011;2530;47.990;7.866;2023-02-01T01:18:14;3.20;;;2.90;;
5022;SDS011;2530;47.990;7.866;2023-02-01T01:20:40;4.10;;;2.73;;
5022;SDS011;2530;47.990;7.866;2023-02-01T01:23:06;3.83;;;3.20;;
5022;SDS011;2530;47.990;7.866;2023-02-01T01:25:32;3.30;;;3.00;;
5022;SDS011;2530;47.990;7.866;2023-02-01T01:28:01;4.03;;;3.35;;
5022;SDS011;2530;47.990;7.866;2023-02-01T01:30:27;3.90;;;3.50;;
5022;SDS011;2530;47.990;7.866;2023-02-01T01:32:52;3.70;;;3.30;;
5022;SDS011;2530;47.990;7.866;2023-02-01T01:35:18;3.78;;;3.20;;
5022;SDS011;2530;47.990;7.866;2023-02-01T01:37:43;3.80;;;3.50;;
5022;SDS011;2530;47.990;7.866;2023-02-01T01:40:09;5.50;;;3.58;;
5022;SDS011;2530;47.990;7.866;2023-02-01T01:42:39;5.05;;;3.20;;
5022;SDS011;2530;47.990;7.866;2023-02-01T01:47:58;6.00;;;3.70;;
5022;SDS011;2530;47.990;7.866;2023-02-01T01:50:30;7.22;;;3.50;;
5022;SDS011;2530;47.990;7.866;2023-02-01T01:53:01;4.97;;;3.30;;
5022;SDS011;2530;47.990;7.866;2023-02-01T01:55:31;3.97;;;3.58;;
5022;SDS011;2530;47.990;7.866;2023-02-01T01:58:02;5.30;;;3.50;;
5022;SDS011;2530;47.990;7.866;2023-02-01T02:00:34;4.37;;;2.97;;
5022;SDS011;2530;47.990;7.866;2023-02-01T02:03:15;3.60;;;2.92;;
5022;SDS011;2530;47.990;7.866;2023-02-01T02:05:45;3.53;;;3.22;;
5022;SDS011;2530;47.990;7.866;2023-02-01T02:08:13;3.30;;;3.00;;
5022;SDS011;2530;47.990;7.866;2023-02-01T02:10:39;4.13;;;2.80;;
5022;SDS011;2530;47.990;7.866;2023-02-01T02:13:23;3.47;;;2.92;;
5022;SDS011;2530;47.990;7.866;2023-02-01T02:15:54;4.18;;;3.20;;
5022;SDS011;2530;47.990;7.866;2023-02-01T02:27:29;5.60;;;2.97;;
5022;SDS011;2530;47.990;7.866;2023-02-01T02:35:44;3.42;;;2.50;;
5022;SDS011;2530;47.990;7.866;2023-02-01T02:38:37;3.33;;;3.03;;
5022;SDS011;2530;47.990;7.866;2023-02-01T02:41:13;3.30;;;3.00;;
5022;SDS011;2530;47.990;7.866;2023-02-01T02:44:08;3.10;;;2.80;;
5022;SDS011;2530;47.990;7.866;2023-02-01T02:47:11;3.70;;;2.80;;
5022;SDS011;2530;47.990;7.866;2023-02-01T02:52:38;3.55;;;2.90;;
5022;SDS011;2530;47.990;7.866;2023-02-01T02:55:36;3.35;;;3.03;;
5022;SDS011;2530;47.990;7.866;2023-02-01T02:58:04;4.10;;;2.85;;
5022;SDS011;2530;47.990;7.866;2023-02-01T03:00:50;3.60;;;2.90;;
5022;SDS011;2530;47.990;7.866;2023-02-01T03:03:37;5.13;;;2.95;;
5022;SDS011;2530;47.990;7.866;2023-02-01T03:06:22;3.20;;;2.90;;
5022;SDS011;2530;47.990;7.866;2023-02-01T03:08:48;3.55;;;3.05;;
5022;SDS011;2530;47.990;7.866;2023-02-01T03:11:18;3.72;;;2.60;;
5022;SDS011;2530;47.990;7.866;2023-02-01T03:13:55;4.22;;;2.83;;
5022;SDS011;2530;47.990;7.866;2023-02-01T03:18:57;4.90;;;2.83;;
5022;SDS011;2530;47.990;7.866;2023-02-01T03:21:42;3.80;;;3.50;;
5022;SDS011;2530;47.990;7.866;2023-02-01T03:24:16;3.10;;;2.63;;
5022;SDS011;2530;47.990;7.866;2023-02-01T03:26:48;3.25;;;2.90;;
5022;SDS011;2530;47.990;7.866;2023-02-01T03:29:21;4.80;;;3.10;;
5022;SDS011;2530;47.990;7.866;2023-02-01T03:31:50;4.50;;;2.90;;
5022;SDS011;2530;47.990;7.866;2023-02-01T03:34:15;3.40;;;3.10;;
5022;SDS011;2530;47.990;7.866;2023-02-01T03:36:52;4.30;;;3.00;;
5022;SDS011;2530;47.990;7.866;2023-02-01T03:39:36;5.03;;;3.45;;
5022;SDS011;2530;47.990;7.866;2023-02-01T03:42:12;5.30;;;4.07;;
5022;SDS011;2530;47.990;7.866;2023-02-01T03:44:49;5.15;;;3.70;;
5022;SDS011;2530;47.990;7.866;2023-02-01T03:47:36;5.65;;;4.38;;
5022;SDS011;2530;47.990;7.866;2023-02-01T03:50:07;4.30;;;3.70;;
5022;SDS011;2530;47.990;7.866;2023-02-01T03:52:39;4.90;;;4.07;;
5022;SDS011;2530;47.990;7.866;2023-02-01T03:55:15;5.03;;;3.70;;
5022;SDS011;2530;47.990;7.866;2023-02-01T03:57:46;5.80;;;4.30;;
5022;SDS011;2530;47.990;7.866;2023-02-01T04:00:31;6.25;;;4.28;;
5022;SDS011;2530;47.990;7.866;2023-02-01T04:02:56;6.85;;;4.13;;
5022;SDS011;2530;47.990;7.866;2023-02-01T04:05:22;5.82;;;4.45;;
5022;SDS011;2530;47.990;7.866;2023-02-01T04:07:48;6.82;;;4.47;;
5022;SDS011;2530;47.990;7.866;2023-02-01T04:10:14;5.87;;;4.90;;
5022;SDS011;2530;47.990;7.866;2023-02-01T04:12:40;5.00;;;4.18;;
5022;SDS011;2530;47.990;7.866;2023-02-01T04:15:06;5.90;;;4.30;;
5022;SDS011;2530;47.990;7.866;2023-02-01T04:17:32;5.85;;;4.60;;
5022;SDS011;2530;47.990;7.866;2023-02-01T04:19:57;6.35;;;4.57;;
5022;SDS011;2530;47.990;7.866;2023-02-01T04:22:23;5.30;;;4.10;;
5022;SDS011;2530;47.990;7.866;2023-02-01T04:24:48;4.60;;;4.00;;
5022;SDS011;2530;47.990;7.866;2023-02-01T04:27:14;5.53;;;4.80;;
5022;SDS011;2530;47.990;7.866;2023-02-01T04:29:40;6.60;;;4.50;;
5022;SDS011;2530;47.990;7.866;2023-02-01T04:32:06;4.32;;;3.88;;
5022;SDS011;2530;47.990;7.866;2023-02-01T04:34:31;6.18;;;4.15;;
5022;SDS011;2530;47.990;7.866;2023-02-01T04:36:57;6.10;;;3.87;;
5022;SDS011;2530;47.990;7.866;2023-02-01T04:39:23;6.00;;;4.40;;
5022;SDS011;2530;47.990;7.866;2023-02-01T04:41:48;4.60;;;4.20;;
5022;SDS011;2530;47.990;7.866;2023-02-01T04:44:14;4.47;;;4.07;;
5022;SDS011;2530;47.990;7.866;2023-02-01T04:46:42;4.50;;;4.10;;
5022;SDS011;2530;47.990;7.866;2023-02-01T04:49:09;6.85;;;3.90;;
5022;SDS011;2530;47.990;7.866;2023-02-01T04:51:35;4.47;;;3.80;;
5022;SDS011;2530;47.990;7.866;2023-02-01T04:54:00;4.10;;;3.70;;
5022;SDS011;2530;47.990;7.866;2023-02-01T04:56:26;5.00;;;3.80;;
5022;SDS011;2530;47.990;7.866;2023-02-01T04:58:51;5.15;;;3.90;;
5022;SDS011;2530;47.990;7.866;2023-02-01T05:01:17;5.13;;;3.58;;
5022;SDS011;2530;47.990;7.866;2023-02-01T05:03:42;5.00;;;3.50;;
5022;SDS011;2530;47.990;7.866;2023-02-01T05:06:08;4.72;;;3.33;;
5022;SDS011;2530;47.990;7.866;2023-02-01T05:08:33;3.65;;;3.22;;
5022;SDS011;2530;47.990;7.866;2023-02-01T05:10:59;4.70;;;3.20;;
5022;SDS011;2530;47.990;7.866;2023-02-01T05:13:27;3.88;;;3.00;;
5022;SDS011;2530;47.990;7.866;2023-02-01T05:16:11;3.85;;;3.20;;
5022;SDS011;2530;47.990;7.866;2023-02-01T05:18:37;3.70;;;2.90;;
5022;SDS011;2530;47.990;7.866;2023-02-01T05:21:02;3.97;;;3.00;;
5022;SDS011;2530;47.990;7.866;2023-02-01T05:23:28;4.60;;;2.90;;
5022;SDS011;2530;47.990;7.866;2023-02-01T05:25:57;3.78;;;3.00;;
5022;SDS011;2530;47.990;7.866;2023-02-01T05:28:26;4.80;;;3.72;;
5022;SDS011;2530;47.990;7.866;2023-02-01T05:30:53;4.15;;;3.75;;
5022;SDS011;2530;47.990;7.866;2023-02-01T05:33:18;6.10;;;3.72;;
5022;SDS011;2530;47.990;7.866;2023-02-01T05:35:44;4.43;;;3.07;;
5022;SDS011;2530;47.990;7.866;2023-02-01T05:38:09;4.50;;;3.33;;
5022;SDS011;2530;47.990;7.866;2023-02-01T05:40:35;4.25;;;3.15;;
5022;SDS011;2530;47.990;7.866;2023-02-01T05:43:01;5.30;;;3.50;;
5022;SDS011;2530;47.990;7.866;2023-02-01T05:45:26;5.18;;;3.30;;
5022;SDS011;2530;47.990;7.866;2023-02-01T05:47:52;4.90;;;3.70;;
5022;SDS011;2530;47.990;7.866;2023-02-01T05:50:17;4.10;;;3.70;;
5022;SDS011;2530;47.990;7.866;2023-02-01T05:52:43;3.67;;;2.95;;
5022;SDS011;2530;47.990;7.866;2023-02-01T05:55:08;6.13;;;3.40;;
5022;SDS011;2530;47.990;7.866;2023-02-01T05:57:34;4.00;;;3.38;;
5022;SDS011;2530;47.990;7.866;2023-02-01T05:59:59;5.05;;;3.30;;
5022;SDS011;2530;47.990;7.866;2023-02-01T06:02:25;4.30;;;3.70;;
5022;SDS011;2530;47.990;7.866;2023-02-01T06:04:51;4.20;;;3.22;;
5022;SDS011;2530;47.990;7.866;2023-02-01T06:07:17;3.28;;;2.97;;
5022;SDS011;2530;47.990;7.866;2023-02-01T06:09:42;4.60;;;3.30;;
5022;SDS011;2530;47.990;7.866;2023-02-01T06:12:08;3.45;;;3.15;;
5022;SDS011;2530;47.990;7.866;2023-02-01T06:14:33;4.55;;;3.20;;
5022;SDS011;2530;47.990;7.866;2023-02-01T06:16:59;3.17;;;2.85;;
5022;SDS011;2530;47.990;7.866;2023-02-01T06:19:25;3.67;;;2.95;;
5022;SDS011;2530;47.990;7.866;2023-02-01T06:21:50;2.93;;;2.50;;
5022;SDS011;2530;47.990;7.866;2023-02-01T06:24:16;2.90;;;2.43;;
5022;SDS011;2530;47.990;7.866;2023-02-01T06:26:41;3.13;;;2.50;;
5022;SDS011;2530;47.990;7.866;2023-02-01T06:29:09;2.60;;;2.40;;
5022;SDS011;2530;47.990;7.866;2023-02-01T06:31:35;2.78;;;2.30;;
5022;SDS011;2530;47.990;7.866;2023-02-01T06:34:01;3.38;;;2.53;;
5022;SDS011;2530;47.990;7.866;2023-02-01T06:36:28;2.83;;;2.20;;
5022;SDS011;2530;47.990;7.866;2023-02-01T06:38:53;2.20;;;1.98;;
5022;SDS011;2530;47.990;7.866;2023-02-01T06:41:21;2.30;;;1.80;;
5022;SDS011;2530;47.990;7.866;2023-02-01T06:43:47;2.23;;;1.80;;
5022;SDS011;2530;47.990;7.866;2023-02-01T06:46:13;1.97;;;1.77;;
5022;SDS011;2530;47.990;7.866;2023-02-01T06:48:39;2.33;;;1.40;;
5022;SDS011;2530;47.990;7.866;2023-02-01T06:51:05;2.50;;;1.80;;
5022;SDS011;2530;47.990;7.866;2023-02-01T06:53:31;1.80;;;1.70;;
5022;SDS011;2530;47.990;7.866;2023-02-01T06:56:00;1.80;;;1.40;;
5022;SDS011;2530;47.990;7.866;2023-02-01T06:58:30;1.80;;;1.60;;
5022;SDS011;2530;47.990;7.866;2023-02-01T07:00:57;1.70;;;1.60;;
5022;SDS011;2530;47.990;7.866;2023-02-01T07:03:28;2.25;;;1.35;;
5022;SDS011;2530;47.990;7.866;2023-02-01T07:05:57;1.90;;;1.60;;
5022;SDS011;2530;47.990;7.866;2023-02-01T07:08:29;1.52;;;1.40;;
5022;SDS011;2530;47.990;7.866;2023-02-01T07:10:57;3.80;;;1.70;;
5022;SDS011;2530;47.990;7.866;2023-02-01T07:13:27;2.60;;;1.40;;
5022;SDS011;2530;47.990;7.866;2023-02-01T07:15:52;2.00;;;1.47;;
5022;SDS011;2530;47.990;7.866;2023-02-01T07:18:18;2.00;;;1.40;;
5022;SDS011;2530;47.990;7.866;2023-02-01T07:20:46;2.40;;;1.40;;
5022;SDS011;2530;47.990;7.866;2023-02-01T07:23:15;1.60;;;1.40;;
5022;SDS011;2530;47.990;7.866;2023-02-01T07:25:40;1.93;;;1.50;;
5022;SDS011;2530;47.990;7.866;2023-02-01T07:28:06;1.90;;;1.20;;
5022;SDS011;2530;47.990;7.866;2023-02-01T07:30:31;1.50;;;1.37;;
5022;SDS011;2530;47.990;7.866;2023-02-01T07:32:57;1.30;;;1.20;;
5022;SDS011;2530;47.990;7.866;2023-02-01T07:35:25;2.38;;;1.40;;
5022;SDS011;2530;47.990;7.866;2023-02-01T07:37:54;1.75;;;1.65;;
5022;SDS011;2530;47.990;7.866;2023-02-01T07:40:19;1.90;;;1.70;;
5022;SDS011;2530;47.990;7.866;2023-02-01T07:42:49;2.55;;;1.80;;
5022;SDS011;2530;47.990;7.866;2023-02-01T07:45:15;3.63;;;1.90;;
5022;SDS011;2530;47.990;7.866;2023-02-01T07:47:41;2.10;;;1.90;;
5022;SDS011;2530;47.990;7.866;2023-02-01T07:50:06;1.92;;;1.73;;
5022;SDS011;2530;47.990;7.866;2023-02-01T07:52:32;2.80;;;2.40;;
5022;SDS011;2530;47.990;7.866;2023-02-01T07:54:58;2.63;;;2.10;;
5022;SDS011;2530;47.990;7.866;2023-02-01T07:57:23;2.50;;;2.30;;
5022;SDS011;2530;47.990;7.866;2023-02-01T07:59:49;3.97;;;2.47;;
5022;SDS011;2530;47.990;7.866;2023-02-01T08:02:33;2.53;;;2.20;;
5022;SDS011;2530;47.990;7.866;2023-02-01T08:04:59;3.77;;;2.60;;
5022;SDS011;2530;47.990;7.866;2023-02-01T08:07:24;2.10;;;1.90;;
5022;SDS011;2530;47.990;7.866;2023-02-01T08:09:50;2.30;;;2.00;;
5022;SDS011;2530;47.990;7.866;2023-02-01T08:12:15;3.17;;;2.37;;
5022;SDS011;2530;47.990;7.866;2023-02-01T08:14:41;2.60;;;1.60;;
5022;SDS011;2530;47.990;7.866;2023-02-01T08:17:06;2.00;;;1.70;;
5022;SDS011;2530;47.990;7.866;2023-02-01T08:19:32;2.30;;;1.70;;
5022;SDS011;2530;47.990;7.866;2023-02-01T08:21:57;1.90;;;1.65;;
5022;SDS011;2530;47.990;7.866;2023-02-01T08:24:24;2.25;;;1.80;;
5022;SDS011;2530;47.990;7.866;2023-02-01T08:26:50;3.30;;;1.70;;
5022;SDS011;2530;47.990;7.866;2023-02-01T08:29:15;3.25;;;1.65;;
5022;SDS011;2530;47.990;7.866;2023-02-01T08:31:41;2.60;;;2.10;;
5022;SDS011;2530;47.990;7.866;2023-02-01T08:34:08;2.10;;;1.75;;
5022;SDS011;2530;47.990;7.866;2023-02-01T08:36:34;2.58;;;1.80;;
5022;SDS011;2530;47.990;7.866;2023-02-01T08:39:00;3.00;;;1.70;;
5022;SDS011;2530;47.990;7.866;2023-02-01T08:41:27;2.63;;;1.70;;
5022;SDS011;2530;47.990;7.866;2023-02-01T08:43:54;1.73;;;1.58;;
5022;SDS011;2530;47.990;7.866;2023-02-01T08:46:20;1.60;;;1.40;;
5022;SDS011;2530;47.990;7.866;2023-02-01T08:48:47;2.50;;;1.70;;
5022;SDS011;2530;47.990;7.866;2023-02-01T08:51:13;1.90;;;1.40;;
5022;SDS011;2530;47.990;7.866;2023-02-01T08:53:40;1.73;;;1.50;;
5022;SDS011;2530;47.990;7.866;2023-02-01T08:56:06;2.45;;;1.67;;
5022;SDS011;2530;47.990;7.866;2023-02-01T08:58:33;2.80;;;1.80;;
5022;SDS011;2530;47.990;7.866;2023-02-01T09:01:02;2.37;;;1.90;;
5022;SDS011;2530;47.990;7.866;2023-02-01T09:03:29;1.90;;;1.70;;
5022;SDS011;2530;47.990;7.866;2023-02-01T09:05:59;3.00;;;2.40;;
5022;SDS011;2530;47.990;7.866;2023-02-01T09:08:28;2.23;;;1.80;;
5022;SDS011;2530;47.990;7.866;2023-02-01T09:10:57;1.80;;;1.52;;
5022;SDS011;2530;47.990;7.866;2023-02-01T09:13:27;2.20;;;1.70;;
5022;SDS011;2530;47.990;7.866;2023-02-01T09:15:52;2.70;;;1.90;;
5022;SDS011;2530;47.990;7.866;2023-02-01T09:18:18;2.28;;;1.80;;
5022;SDS011;2530;47.990;7.866;2023-02-01T09:20:44;2.22;;;1.50;;
5022;SDS011;2530;47.990;7.866;2023-02-01T09:23:10;1.98;;;1.77;;
5022;SDS011;2530;47.990;7.866;2023-02-01T09:25:36;2.00;;;1.80;;
5022;SDS011;2530;47.990;7.866;2023-02-01T09:28:03;2.17;;;1.90;;
5022;SDS011;2530;47.990;7.866;2023-02-01T09:30:31;3.03;;;1.92;;
5022;SDS011;2530;47.990;7.866;2023-02-01T09:32:57;1.95;;;1.75;;
5022;SDS011;2530;47.990;7.866;2023-02-01T09:35:22;2.40;;;2.20;;
5022;SDS011;2530;47.990;7.866;2023-02-01T09:37:48;2.20;;;2.00;;
5022;SDS011;2530;47.990;7.866;2023-02-01T09:40:14;3.47;;;2.70;;
5022;SDS011;2530;47.990;7.866;2023-02-01T09:43:02;3.10;;;2.28;;
5022;SDS011;2530;47.990;7.866;2023-02-01T09:48:13;4.10;;;2.45;;
5022;SDS011;2530;47.990;7.866;2023-02-01T09:50:44;2.75;;;2.50;;
5022;SDS011;2530;47.990;7.866;2023-02-01T09:56:07;3.00;;;2.80;;
5022;SDS011;2530;47.990;7.866;2023-02-01T10:02:08;3.23;;;2.93;;
5022;SDS011;2530;47.990;7.866;2023-02-01T10:04:39;3.63;;;2.75;;
5022;SDS011;2530;47.990;7.866;2023-02-01T10:09:43;3.40;;;3.00;;
5022;SDS011;2530;47.990;7.866;2023-02-01T10:12:24;3.30;;;2.42;;
5022;SDS011;2530;47.990;7.866;2023-02-01T10:18:10;4.50;;;3.10;;
5022;SDS011;2530;47.990;7.866;2023-02-01T10:28:37;4.80;;;3.20;;
5022;SDS011;2530;47.990;7.866;2023-02-01T10:31:04;5.32;;;3.15;;
5022;SDS011;2530;47.990;7.866;2023-02-01T10:33:39;4.30;;;3.40;;
5022;SDS011;2530;47.990;7.866;2023-02-01T10:36:16;4.47;;;3.55;;
5022;SDS011;2530;47.990;7.866;2023-02-01T10:38:44;5.33;;;3.37;;
5022;SDS011;2530;47.990;7.866;2023-02-01T10:41:32;5.63;;;3.40;;
5022;SDS011;2530;47.990;7.866;2023-02-01T10:44:00;6.28;;;3.88;;
5022;SDS011;2530;47.990;7.866;2023-02-01T10:46:29;4.43;;;3.10;;
5022;SDS011;2530;47.990;7.866;2023-02-01T10:48:56;4.45;;;3.55;;
5022;SDS011;2530;47.990;7.866;2023-02-01T10:51:37;3.57;;;3.10;;
5022;SDS011;2530;47.990;7.866;2023-02-01T10:54:51;5.70;;;3.42;;
5022;SDS011;2530;47.990;7.866;2023-02-01T10:57:03;5.32;;;3.45;;
5022;SDS011;2530;47.990;7.866;2023-02-01T10:59:33;4.80;;;3.80;;
5022;SDS011;2530;47.990;7.866;2023-02-01T11:02:02;5.07;;;3.45;;
5022;SDS011;2530;47.990;7.866;2023-02-01T11:04:40;4.65;;;3.53;;
5022;SDS011;2530;47.990;7.866;2023-02-01T11:07:27;4.90;;;3.53;;
5022;SDS011;2530;47.990;7.866;2023-02-01T11:09:54;3.97;;;3.50;;
5022;SDS011;2530;47.990;7.866;2023-02-01T11:12:34;3.60;;;3.20;;
5022;SDS011;2530;47.990;7.866;2023-02-01T11:15:18;7.47;;;4.22;;
5022;SDS011;2530;47.990;7.866;2023-02-01T11:17:46;3.88;;;3.50;;
5022;SDS011;2530;47.990;7.866;2023-02-01T11:20:55;4.70;;;3.67;;
5022;SDS011;2530;47.990;7.866;2023-02-01T11:23:05;9.88;;;3.78;;
5022;SDS011;2530;47.990;7.866;2023-02-01T11:25:37;6.10;;;4.00;;
5022;SDS011;2530;47.990;7.866;2023-02-01T11:28:03;5.95;;;3.70;;
5022;SDS011;2530;47.990;7.866;2023-02-01T11:30:33;7.30;;;3.97;;
5022;SDS011;2530;47.990;7.866;2023-02-01T11:33:02;5.63;;;3.50;;
5022;SDS011;2530;47.990;7.866;2023-02-01T11:35:30;5.10;;;3.80;;
5022;SDS011;2530;47.990;7.866;2023-02-01T11:37:59;6.82;;;4.03;;
5022;SDS011;2530;47.990;7.866;2023-02-01T11:40:26;5.78;;;4.10;;
5022;SDS011;2530;47.990;7.866;2023-02-01T11:43:11;4.32;;;3.80;;
5022;SDS011;2530;47.990;7.866;2023-02-01T11:45:42;6.25;;;3.33;;
5022;SDS011;2530;47.990;7.866;2023-02-01T11:48:26;7.00;;;3.60;;
5022;SDS011;2530;47.990;7.866;2023-02-01T11:51:04;6.75;;;3.70;;
5022;SDS011;2530;47.990;7.866;2023-02-01T11:56:51;4.43;;;3.38;;
5022;SDS011;2530;47.990;7.866;2023-02-01T11:59:49;5.75;;;3.50;;
5022;SDS011;2530;47.990;7.866;2023-02-01T12:02:37;8.88;;;3.85;;
5022;SDS011;2530;47.990;7.866;2023-02-01T12:05:25;6.18;;;3.15;;
5022;SDS011;2530;47.990;7.866;2023-02-01T12:07:57;6.55;;;3.30;;
5022;SDS011;2530;47.990;7.866;2023-02-01T12:10:50;6.95;;;3.58;;
5022;SDS011;2530;47.990;7.866;2023-02-01T12:16:02;6.53;;;3.78;;
5022;SDS011;2530;47.990;7.866;2023-02-01T12:23:52;8.50;;;3.70;;
5022;SDS011;2530;47.990;7.866;2023-02-01T12:29:52;7.23;;;3.43;;
5022;SDS011;2530;47.990;7.866;2023-02-01T12:38:35;7.60;;;3.88;;
5022;SDS011;2530;47.990;7.866;2023-02-01T12:46:53;5.00;;;3.40;;
5022;SDS011;2530;47.990;7.866;2023-02-01T12:52:29;6.57;;;4.20;;
5022;SDS011;2530;47.990;7.866;2023-02-01T12:55:47;7.55;;;3.50;;
5022;SDS011;2530;47.990;7.866;2023-02-01T12:57:53;6.53;;;4.47;;
5022;SDS011;2530;47.990;7.866;2023-02-01T13:00:28;8.60;;;3.80;;
5022;SDS011;2530;47.990;7.866;2023-02-01T13:03:05;7.55;;;4.40;;
5022;SDS011;2530;47.990;7.866;2023-02-01T13:08:36;8.50;;;3.70;;
5022;SDS011;2530;47.990;7.866;2023-02-01T13:11:12;6.85;;;3.80;;
5022;SDS011;2530;47.990;7.866;2023-02-01T13:13:48;7.72;;;3.60;;
5022;SDS011;2530;47.990;7.866;2023-02-01T13:19:49;10.40;;;3.95;;
5022;SDS011;2530;47.990;7.866;2023-02-01T13:22:20;8.13;;;3.70;;
5022;SDS011;2530;47.990;7.866;2023-02-01T13:24:58;10.30;;;3.83;;
5022;SDS011;2530;47.990;7.866;2023-02-01T13:27:41;8.50;;;4.63;;
5022;SDS011;2530;47.990;7.866;2023-02-01T13:35:19;7.00;;;3.30;;
5022;SDS011;2530;47.990;7.866;2023-02-01T13:40:44;7.28;;;3.58;;
5022;SDS011;2530;47.990;7.866;2023-02-01T13:43:22;8.73;;;3.92;;
5022;SDS011;2530;47.990;7.866;2023-02-01T13:45:50;11.07;;;4.30;;
5022;SDS011;2530;47.990;7.866;2023-02-01T13:48:34;7.85;;;4.28;;
5022;SDS011;2530;47.990;7.866;2023-02-01T13:51:05;7.75;;;4.50;;
5022;SDS011;2530;47.990;7.866;2023-02-01T13:53:32;7.40;;;3.75;;
5022;SDS011;2530;47.990;7.866;2023-02-01T13:58:38;7.45;;;3.35;;
5022;SDS011;2530;47.990;7.866;2023-02-01T14:03:47;7.65;;;3.42;;
5022;SDS011;2530;47.990;7.866;2023-02-01T14:19:35;9.32;;;4.10;;
5022;SDS011;2530;47.990;7.866;2023-02-01T14:24:52;8.93;;;3.27;;
5022;SDS011;2530;47.990;7.866;2023-02-01T14:27:21;6.50;;;2.90;;
5022;SDS011;2530;47.990;7.866;2023-02-01T14:29:54;7.82;;;3.50;;
5022;SDS011;2530;47.990;7.866;2023-02-01T14:32:24;6.25;;;3.28;;
5022;SDS011;2530;47.990;7.866;2023-02-01T14:34:57;7.70;;;3.22;;
5022;SDS011;2530;47.990;7.866;2023-02-01T14:37:26;7.47;;;2.80;;
5022;SDS011;2530;47.990;7.866;2023-02-01T14:40:01;8.90;;;3.60;;
5022;SDS011;2530;47.990;7.866;2023-02-01T14:47:45;8.35;;;3.42;;
5022;SDS011;2530;47.990;7.866;2023-02-01T14:50:21;10.27;;;3.30;;
5022;SDS011;2530;47.990;7.866;2023-02-01T14:55:34;7.47;;;3.45;;
5022;SDS011;2530;47.990;7.866;2023-02-01T14:58:01;7.60;;;3.40;;
5022;SDS011;2530;47.990;7.866;2023-02-01T15:00:30;5.15;;;2.95;;
5022;SDS011;2530;47.990;7.866;2023-02-01T15:05:56;8.48;;;3.53;;
5022;SDS011;2530;47.990;7.866;2023-02-01T15:08:27;5.53;;;2.40;;
5022;SDS011;2530;47.990;7.866;2023-02-01T15:10:55;4.72;;;3.17;;
5022;SDS011;2530;47.990;7.866;2023-02-01T15:13:25;9.15;;;4.13;;
5022;SDS011;2530;47.990;7.866;2023-02-01T15:18:40;10.67;;;3.20;;
5022;SDS011;2530;47.990;7.866;2023-02-01T15:21:06;11.10;;;3.65;;
5022;SDS011;2530;47.990;7.866;2023-02-01T15:23:41;8.30;;;3.80;;
5022;SDS011;2530;47.990;7.866;2023-02-01T15:26:07;8.48;;;3.40;;
5022;SDS011;2530;47.990;7.866;2023-02-01T15:28:32;11.15;;;4.20;;
5022;SDS011;2530;47.990;7.866;2023-02-01T15:30:59;12.60;;;3.80;;
5022;SDS011;2530;47.990;7.866;2023-02-01T15:33:28;9.57;;;4.20;;
5022;SDS011;2530;47.990;7.866;2023-02-01T15:36:17;9.95;;;3.70;;
5022;SDS011;2530;47.990;7.866;2023-02-01T15:38:43;6.63;;;3.78;;
5022;SDS011;2530;47.990;7.866;2023-02-01T15:41:17;6.72;;;4.10;;
5022;SDS011;2530;47.990;7.866;2023-02-01T15:46:31;9.57;;;3.70;;
5022;SDS011;2530;47.990;7.866;2023-02-01T15:49:00;10.07;;;4.37;;
5022;SDS011;2530;47.990;7.866;2023-02-01T15:51:27;9.50;;;3.90;;
5022;SDS011;2530;47.990;7.866;2023-02-01T15:53:59;9.75;;;3.90;;
5022;SDS011;2530;47.990;7.866;2023-02-01T15:56:36;9.18;;;3.47;;
5022;SDS011;2530;47.990;7.866;2023-02-01T15:59:05;7.18;;;3.25;;
5022;SDS011;2530;47.990;7.866;2023-02-01T16:01:39;7.15;;;3.55;;
5022;SDS011;2530;47.990;7.866;2023-02-01T16:06:46;8.70;;;3.53;;
5022;SDS011;2530;47.990;7.866;2023-02-01T16:09:14;10.15;;;3.58;;
5022;SDS011;2530;47.990;7.866;2023-02-01T16:11:48;6.57;;;3.25;;
5022;SDS011;2530;47.990;7.866;2023-02-01T16:14:18;11.43;;;3.88;;
5022;SDS011;2530;47.990;7.866;2023-02-01T16:16:44;9.48;;;3.50;;
5022;SDS011;2530;47.990;7.866;2023-02-01T16:19:10;7.07;;;3.13;;
5022;SDS011;2530;47.990;7.866;2023-02-01T16:21:35;8.00;;;3.80;;
5022;SDS011;2530;47.990;7.866;2023-02-01T16:24:01;9.15;;;3.47;;
5022;SDS011;2530;47.990;7.866;2023-02-01T16:26:29;9.55;;;4.20;;
5022;SDS011;2530;47.990;7.866;2023-02-01T16:28:56;8.05;;;3.00;;
5022;SDS011;2530;47.990;7.866;2023-02-01T16:31:28;8.10;;;3.40;;
5022;SDS011;2530;47.990;7.866;2023-02-01T16:33:54;9.02;;;4.18;;
5022;SDS011;2530;47.990;7.866;2023-02-01T16:36:20;6.40;;;3.33;;
5022;SDS011;2530;47.990;7.866;2023-02-01T16:38:46;7.45;;;3.78;;
5022;SDS011;2530;47.990;7.866;2023-02-01T16:41:14;9.73;;;4.50;;
5022;SDS011;2530;47.990;7.866;2023-02-01T16:43:42;6.30;;;3.60;;
5022;SDS011;2530;47.990;7.866;2023-02-01T16:46:18;6.45;;;4.38;;
5022;SDS011;2530;47.990;7.866;2023-02-01T16:48:50;7.33;;;3.60;;
5022;SDS011;2530;47.990;7.866;2023-02-01T16:51:18;9.77;;;3.92;;
5022;SDS011;2530;47.990;7.866;2023-02-01T16:53:44;7.90;;;3.42;;
5022;SDS011;2530;47.990;7.866;2023-02-01T16:56:14;7.78;;;3.70;;
5022;SDS011;2530;47.990;7.866;2023-02-01T16:58:47;8.85;;;3.35;;
5022;SDS011;2530;47.990;7.866;2023-02-01T17:01:13;8.60;;;3.60;;
5022;SDS011;2530;47.990;7.866;2023-02-01T17:03:41;7.70;;;3.35;;
5022;SDS011;2530;47.990;7.866;2023-02-01T17:06:09;9.27;;;3.60;;
5022;SDS011;2530;47.990;7.866;2023-02-01T17:08:42;7.57;;;3.60;;
5022;SDS011;2530;47.990;7.866;2023-02-01T17:11:14;8.85;;;3.50;;
5022;SDS011;2530;47.990;7.866;2023-02-01T17:13:40;8.10;;;3.27;;
5022;SDS011;2530;47.990;7.866;2023-02-01T17:18:59;7.47;;;3.20;;
5022;SDS011;2530;47.990;7.866;2023-02-01T17:21:29;11.25;;;3.60;;
5022;SDS011;2530;47.990;7.866;2023-02-01T17:23:59;7.80;;;3.20;;
5022;SDS011;2530;47.990;7.866;2023-02-01T17:26:25;9.68;;;3.38;;
5022;SDS011;2530;47.990;7.866;2023-02-01T17:28:51;7.90;;;3.55;;
5022;SDS011;2530;47.990;7.866;2023-02-01T17:31:16;7.30;;;3.58;;
5022;SDS011;2530;47.990;7.866;2023-02-01T17:33:42;9.25;;;3.42;;
5022;SDS011;2530;47.990;7.866;2023-02-01T17:36:10;6.20;;;3.70;;
5022;SDS011;2530;47.990;7.866;2023-02-01T17:38:38;8.35;;;3.50;;
5022;SDS011;2530;47.990;7.866;2023-02-01T17:41:03;6.25;;;3.95;;
5022;SDS011;2530;47.990;7.866;2023-02-01T17:43:29;6.70;;;3.13;;
5022;SDS011;2530;47.990;7.866;2023-02-01T17:45:59;9.03;;;4.03;;